• Join FlightAware (Why Join?)
  • Login
  • US Flag 
06:30PM EDT


 

Airport Tracker/Info


-or-


 

Live Flight TrackerFlight Track Log ✈ SWA2214 ✈ 10-May-2013 ✈ KGSP - KHOU

Flight Track Log - Related Links

Times and Time Zones

All times are in EDT time to prevent confusion due to time zone crossing. See the SWA2214 flight status page for this flight to view local times or setup timezone preferences in your user account.

Time Position Orientation Groundspeed Altitude Reporting Facility
EDT Latitude Longitude Course Direction KTS MPH feet Rate Location/Type
07:11PM 34.8503 -82.2950 258° West 215 247 4,300  Level Atlanta Center
07:12PM 34.8619 -82.3756 280° West 266 306 6,600 2,760 Climbing Atlanta Center
07:13PM 34.8756 -82.4589 281° West 286 329 9,900 2,760 Climbing Atlanta Center
07:14PM 34.8539 -82.5656 256° West 287 330 12,200 2,880 Climbing Atlanta Center
07:15PM 34.8303 -82.6747 255° West 315 362 15,700 3,480 Climbing Atlanta Center
07:16PM 34.8064 -82.7867 255° West 333 383 19,200 3,000 Climbing Atlanta Center
07:17PM 34.7702 -82.8472 258° West  Level FlightAware Approximate
07:17PM 34.7825 -82.9008 256° West 340 391 21,700  Level Atlanta Center
07:18PM 34.7583 -83.0172 256° West 351 404 24,100 2,280 Climbing Atlanta Center
07:19PM 34.7281 -83.1392 253° West 370 426 26,300 1,740 Climbing Atlanta Center
07:20PM 34.7017 -83.2681 256° West 382 440 27,600 1,320 Climbing Atlanta Center
07:21PM 34.6608 -83.4000 249° West 403 464 29,000 1,800 Climbing Atlanta Center
07:22PM 34.6092 -83.5264 244° Southwest 413 475 31,200 1,860 Climbing Atlanta Center
07:23PM 34.5617 -83.6553 246° West 418 481 32,800 1,740 Climbing Atlanta Center
07:24PM 34.5139 -83.7792 245° Southwest 418 481 34,700 1,920 Climbing Atlanta Center
07:25PM 34.4661 -83.9028 245° Southwest 413 475 36,700 1,800 Climbing Atlanta Center
07:26PM 34.4183 -84.0161 243° Southwest 396 456 38,300 1,200 Climbing Atlanta Center
07:27PM 34.3722 -84.1344 245° Southwest 396 456 39,200 840 Climbing Atlanta Center
07:28PM 34.3325 -84.2375 245° Southwest 385 443 40,000 360 Climbing Atlanta Center
07:29PM 34.2864 -84.3556 245° Southwest 385 443 40,000  Level Atlanta Center
07:30PM 34.2403 -84.4736 245° Southwest 385 443 40,000  Level Atlanta Center
07:31PM 34.1939 -84.5889 244° Southwest 385 443 40,000  Level Atlanta Center
07:32PM 34.1472 -84.7064 244° Southwest 385 443 40,000  Level Atlanta Center
07:33PM 34.0903 -84.8314 241° Southwest 383 441 40,000  Level Atlanta Center
07:34PM 34.0497 -84.9414 246° West 389 448 40,000  Level Atlanta Center
07:35PM 34.0008 -85.0561 243° Southwest 389 448 40,000  Level Atlanta Center
07:36PM 33.9561 -85.1708 245° Southwest 384 442 40,000  Level Atlanta Center
07:37PM 33.9089 -85.2853 244° Southwest 384 442 40,000  Level Atlanta Center
07:38PM 33.8619 -85.3972 243° Southwest 384 442 40,000  Level Atlanta Center
07:39PM 33.8125 -85.5139 243° Southwest 384 442 40,000  Level Atlanta Center
07:40PM 33.7608 -85.6381 243° Southwest 384 442 40,000  Level Atlanta Center
07:41PM 33.7178 -85.7497 245° Southwest 379 436 40,000  Level Atlanta Center
07:42PM 33.6703 -85.8486 240° Southwest 357 411 40,000  Level Atlanta Center
07:43PM 33.6269 -85.9522 243° Southwest 352 405 40,000  Level Atlanta Center
07:44PM 33.5836 -86.0511 242° Southwest 347 399 40,000  Level Atlanta Center
07:45PM 33.5422 -86.1547 244° Southwest 340 391 40,000  Level Atlanta Center
07:46PM 33.5011 -86.2511 243° Southwest 340 391 40,000  Level Atlanta Center
07:47PM 33.4594 -86.3469 242° Southwest 340 391 40,000  Level Atlanta Center
07:48PM 33.4158 -86.4453 242° Southwest 340 391 40,000  Level Atlanta Center
07:49PM 33.3744 -86.5414 243° Southwest 340 391 40,000  Level Atlanta Center
07:50PM 33.3328 -86.6394 243° Southwest 340 391 40,000  Level Atlanta Center
07:51PM 33.2972 -86.7303 245° Southwest 340 391 40,000  Level Atlanta Center
07:52PM 33.2556 -86.8308 244° Southwest 340 391 40,000  Level Atlanta Center
07:53PM 33.2114 -86.9339 243° Southwest 340 391 40,000  Level Atlanta Center
07:54PM 33.1650 -87.0364 242° Southwest 340 391 40,000  Level Atlanta Center
07:55PM 33.1142 -87.1514 242° Southwest 352 405 40,000  Level Atlanta Center
07:56PM 33.0722 -87.2439 242° Southwest 352 405 40,000  Level Atlanta Center
07:57PM 33.0233 -87.3486 241° Southwest 352 405 40,000  Level Atlanta Center
07:59PM 32.9308 -87.5653 243° Southwest 364 419 40,000  Level Memphis Center
08:00PM 32.8850 -87.6708 243° Southwest 364 419 40,000  Level Memphis Center
08:01PM 32.8372 -87.7786 242° Southwest 371 427 40,000  Level Memphis Center
08:02PM 32.7914 -87.8836 243° Southwest 371 427 40,000  Level Memphis Center
08:03PM 32.7414 -88.0011 243° Southwest 365 420 40,000  Level Memphis Center
08:04PM 32.6972 -88.1011 242° Southwest 365 420 40,000  Level Memphis Center
08:05PM 32.6553 -88.1958 242° Southwest 365 420 40,000  Level Memphis Center
08:06PM 32.6089 -88.3031 243° Southwest 365 420 40,000  Level Memphis Center
08:07PM 32.5625 -88.4050 242° Southwest 365 420 40,000  Level Memphis Center
08:08PM 32.5142 -88.5097 241° Southwest 365 420 40,000  Level Memphis Center
08:09PM 32.4656 -88.6142 241° Southwest 365 420 40,000  Level Memphis Center
08:10PM 32.4189 -88.7183 242° Southwest 365 420 40,000  Level Memphis Center
08:11PM 32.3722 -88.8225 242° Southwest 365 420 40,000  Level Memphis Center
08:12PM 32.3403 -88.9386 252° West 360 414 40,000  Level Memphis Center
08:13PM 32.3081 -89.0497 251° West 365 420 40,000  Level Memphis Center
08:14PM 32.2758 -89.1608 251° West 365 420 40,000  Level Memphis Center
08:15PM 32.2433 -89.2717 251° West 365 420 40,000  Level Memphis Center
08:16PM 32.2108 -89.3825 251° West 365 420 40,000  Level Memphis Center
08:17PM 32.1783 -89.4958 251° West 365 420 40,000  Level Memphis Center
08:18PM 32.1436 -89.6089 250° West 370 426 40,000  Level Memphis Center
08:19PM 32.1108 -89.7269 252° West 370 426 40,000  Level Memphis Center
08:20PM 32.0758 -89.8400 250° West 370 426 40,000  Level Memphis Center
08:21PM 32.0408 -89.9553 250° West 370 426 40,000  Level Memphis Center
08:22PM 32.0078 -90.0706 251° West 370 426 40,000  Level Memphis Center
08:23PM 31.9725 -90.1883 251° West 370 426 40,000  Level Memphis Center
08:24PM 31.9392 -90.3011 251° West 370 426 40,000  Level Memphis Center
08:27PM 31.8619 -90.5633 251° West 369 425 40,000  Level Houston Center
08:28PM 31.8275 -90.6753 250° West 364 419 40,000  Level Houston Center
08:29PM 31.7933 -90.7889 251° West 368 423 40,000  Level Houston Center
08:30PM 31.7572 -90.9036 250° West 373 429 40,000  Level Houston Center
08:31PM 31.7236 -91.0139 250° West 366 421 40,000  Level Houston Center
08:32PM 31.6831 -91.1450 250° West 360 414 40,000  Level Houston Center
08:33PM 31.6472 -91.2567 249° West 362 417 40,000  Level Houston Center
08:34PM 31.6125 -91.3700 250° West 366 421 40,000  Level Houston Center
08:35PM 31.5769 -91.4839 250° West 369 425 40,000  Level Houston Center
08:36PM 31.5419 -91.5969 250° West 368 423 40,000  Level Houston Center
08:37PM 31.5072 -91.7086 250° West 366 421 40,000  Level Houston Center
08:38PM 31.4719 -91.8203 250° West 364 419 40,000  Level Houston Center
08:39PM 31.4297 -91.9553 250° West 366 421 40,000  Level Houston Center
08:40PM 31.3933 -92.0683 249° West 365 420 40,000  Level Houston Center
08:41PM 31.3578 -92.1806 250° West 368 423 40,000  Level Houston Center
08:42PM 31.3211 -92.2947 249° West 374 430 40,000  Level Houston Center
08:43PM 31.2839 -92.4081 249° West 375 432 40,000  Level Houston Center
08:44PM 31.2481 -92.5175 249° West 365 420 40,000  Level Houston Center
08:45PM 31.2089 -92.6264 247° West 363 418 40,000  Level Houston Center
08:46PM 31.1700 -92.7356 247° West 364 419 40,000  Level Houston Center
08:47PM 31.1308 -92.8419 247° West 359 413 40,000  Level Houston Center
08:48PM 31.0844 -92.9683 247° West 356 410 40,000  Level Houston Center
08:49PM 31.0447 -93.0750 247° West 358 412 40,000  Level Houston Center
08:50PM 31.0050 -93.1806 246° West 358 412 40,000  Level Houston Center
08:51PM 30.9656 -93.2872 247° West 360 414 40,000  Level Houston Center
08:52PM 30.9250 -93.3917 246° West 358 412 40,000  Level Houston Center
08:53PM 30.8858 -93.4969 247° West 356 410 40,000  Level Houston Center
08:54PM 30.8389 -93.6239 247° West 358 412 40,000 -300 Level Houston Center
08:55PM 30.7997 -93.7278 246° West 354 407 39,500 -720 Descending Houston Center
08:56PM 30.7597 -93.8319 246° West 357 411 38,600 -1,320 Descending Houston Center
08:58PM 30.7197 -93.9381 246° West 359 413 36,800 -2,700 Descending Houston Center
08:59PM 30.6786 -94.0450 246° West 364 419 33,100 -3,540 Descending Houston Center
09:00PM 30.6350 -94.1581 246° West 382 440 29,600 -3,420 Descending Houston Center
09:01PM 30.5908 -94.2722 246° West 389 448 26,100 -3,180 Descending Houston Center
09:02PM 30.5392 -94.4053 246° West 379 436 23,100 -2,700 Descending Houston Center
09:03PM 30.4975 -94.5119 246° West 370 426 20,600 -2,580 Descending Houston Center
09:03PM 30.4675 -94.5594 234° Southwest 357 411 19,400 -2,580 Descending Houston Center
09:04PM 30.4386 -94.6050 234° Southwest 358 412 18,000 -2,520 Descending Houston Center
09:04PM 30.4108 -94.6469 232° Southwest 343 395 16,800 -2,460 Descending Houston Center
09:05PM 30.3825 -94.6917 234° Southwest 339 390 15,500 -2,580 Descending Houston Center
09:05PM 30.3542 -94.7364 234° Southwest 332 382 14,200 -2,220 Descending Houston Center
09:06PM 30.3281 -94.7769 233° Southwest 331 381 13,300 -1,440 Descending Houston Center
09:06PM 30.3028 -94.8133 231° Southwest 328 377 12,900 -1,020 Descending Houston Center
09:07PM 30.2742 -94.8592 234° Southwest 324 373 12,300 -1,020 Descending Houston Center
09:07PM 30.2497 -94.8950 232° Southwest 313 360 11,900 -1,020 Descending Houston Center
09:08PM 30.2225 -94.9400 235° Southwest 315 362 11,300 -1,020 Descending Houston Center
09:08PM 30.1983 -94.9739 230° Southwest 309 356 10,900 -1,260 Descending Houston Center
09:09PM 30.1717 -95.0183 235° Southwest 307 353 10,000 -900 Descending Houston Center
09:09PM 30.1453 -95.0581 232° Southwest 310 357 10,000  Level Houston Center
09:10PM 30.1083 -95.0839 211° Southwest 310 357 10,000  Level Houston Center
09:10PM 30.0572 -95.1050 200° South 315 362 10,000  Level Houston Center
09:11PM 30.0097 -95.1253 200° South 314 361 10,000  Level Houston Center
09:11PM 29.9764 -95.1392 200° South 310 357 10,000 -540 Level Houston Center
09:12PM 29.9322 -95.1583 201° Southwest 296 341 9,500 -900 Descending Houston Center
09:12PM 29.9019 -95.1725 202° Southwest 284 327 9,100 -1,020 Descending Houston Center
09:13PM 29.8586 -95.1900 199° South 284 327 8,500 -1,020 Descending Houston Center
09:13PM 29.8350 -95.2000 200° South 283 326 8,200 -1,020 Descending Houston Center
09:14PM 29.7867 -95.2211 201° Southwest 280 322 7,500 -1,020 Descending Houston Center
09:14PM 29.7606 -95.2331 202° Southwest 281 323 7,200 -1,020 Descending Houston Center
09:15PM 29.7131 -95.2525 200° South 282 325 6,500 -1,140 Descending Houston Center
09:15PM 29.6867 -95.2756 217° Southwest 283 326 6,100 -540 Descending Houston Center
09:16PM 29.6569 -95.3100 225° Southwest 279 321 6,000 -180 Descending Houston Center
09:16PM 29.6317 -95.3400 226° Southwest 239 275 5,900 -720 Descending Houston Center
09:17PM 29.6308 -95.3894 269° West 245 282 5,300 -1,020 Descending Houston Center
09:17PM 29.6467 -95.4103 311° West 239 275 4,900 -1,200 Descending Houston Center
09:18PM 29.6769 -95.4442 316° Northwest 240 276 4,100 -1,080 Descending Houston Center
09:18PM 29.7003 -95.4689 317° Northwest 239 275 3,700 -1,020 Descending Houston Center
09:19PM 29.7319 -95.4803 343° North 241 277 3,100 -1,140 Descending Houston Center
09:19PM 29.7522 -95.4628 37° Northeast 235 270 2,700 -780 Descending Houston Center
09:20PM 29.7592 -95.4233 79° East 233 268 2,300 -420 Descending Houston Center
09:21PM 29.7250 -95.3739 129° Southeast 210 242 2,000 -480 Descending Houston Center
09:21PM 29.7089 -95.3572 138° Southeast 201 231 1,700 -840 Descending Houston Center
09:22PM 29.6897 -95.3319 131° Southeast 194 223 1,200 -840 Descending Houston Center
09:22PM 29.6781 -95.3175 133° Southeast 133 153 900 -720 Descending Houston Center
09:23PM 29.6661 -95.3044 136° Southeast 147 169 500 -600 Descending Houston Center